createdAt,value
2024-03-12T00:00:49.215Z,109.40
2024-03-12T00:04:58.914Z,91.00
2024-03-12T00:08:43.825Z,81.50
2024-03-12T00:12:19.127Z,90.80
2024-03-12T00:16:03.687Z,92.00
2024-03-12T00:20:01.266Z,85.70
2024-03-12T00:23:47.647Z,96.30
2024-03-12T00:27:24.881Z,96.00
2024-03-12T00:30:42.814Z,88.70
2024-03-12T00:34:31.072Z,92.30
2024-03-12T00:37:52.023Z,94.40
2024-03-12T00:41:12.056Z,90.10
2024-03-12T00:44:38.644Z,86.80
2024-03-12T00:48:31.220Z,84.70
2024-03-12T00:52:24.354Z,81.30
2024-03-12T00:56:19.236Z,79.00
2024-03-12T00:59:48.647Z,77.60
2024-03-12T01:03:45.566Z,78.50
2024-03-12T01:07:30.342Z,80.90
2024-03-12T01:11:06.767Z,88.90
2024-03-12T01:14:38.956Z,83.50
2024-03-12T01:18:10.416Z,89.10
2024-03-12T01:21:45.711Z,86.60
2024-03-12T01:25:30.661Z,87.60
2024-03-12T01:29:34.766Z,90.90
2024-03-12T01:33:14.456Z,87.80
2024-03-12T01:36:59.884Z,80.30
2024-03-12T01:40:29.441Z,91.90
2024-03-12T01:44:13.124Z,81.40
2024-03-12T01:47:57.919Z,89.60
2024-03-12T01:51:45.604Z,84.30
2024-03-12T01:55:35.673Z,86.60
2024-03-12T01:59:10.144Z,89.00
2024-03-12T02:03:13.530Z,87.90
2024-03-12T02:06:16.676Z,89.70
2024-03-12T02:09:56.023Z,80.90
2024-03-12T02:13:28.331Z,82.00
2024-03-12T02:16:47.214Z,93.30
2024-03-12T02:20:18.608Z,80.70
2024-03-12T02:24:04.564Z,83.90
2024-03-12T02:27:12.741Z,88.40
2024-03-12T02:30:46.815Z,80.40
2024-03-12T02:33:51.686Z,76.30
2024-03-12T02:37:54.359Z,76.00
2024-03-12T02:41:57.176Z,79.40
2024-03-12T02:45:26.422Z,87.90
2024-03-12T02:48:19.769Z,79.00
2024-03-12T02:51:37.721Z,77.20
2024-03-12T02:55:03.871Z,80.00
2024-03-12T02:58:26.356Z,75.70
2024-03-12T03:01:16.268Z,74.90
2024-03-12T03:05:05.667Z,74.20
2024-03-12T03:08:54.750Z,77.40
2024-03-12T03:12:24.644Z,73.50
2024-03-12T03:16:16.887Z,75.90
2024-03-12T03:20:11.691Z,73.70
2024-03-12T03:23:58.702Z,73.10
2024-03-12T03:27:19.413Z,73.30
2024-03-12T03:30:16.872Z,82.00
2024-03-12T03:34:01.144Z,76.10
2024-03-12T03:37:52.542Z,72.10
2024-03-12T03:41:56.626Z,79.10
2024-03-12T03:45:40.876Z,74.30
2024-03-12T03:48:53.495Z,79.80
2024-03-12T03:52:48.423Z,71.90
2024-03-12T03:56:20.385Z,79.30
2024-03-12T03:59:55.056Z,75.90
2024-03-12T04:03:38.975Z,74.80
2024-03-12T04:07:05.956Z,73.00
2024-03-12T04:10:32.345Z,80.70
2024-03-12T04:14:01.753Z,77.40
2024-03-12T04:17:34.511Z,74.90
2024-03-12T04:20:50.908Z,73.40
2024-03-12T04:24:35.800Z,78.10
2024-03-12T04:31:53.705Z,96.20
2024-03-12T04:39:39.996Z,94.30
2024-03-12T04:43:18.783Z,96.20
2024-03-12T04:47:12.572Z,90.10
2024-03-12T04:50:59.450Z,92.70
2024-03-12T04:54:51.806Z,88.80
2024-03-12T04:58:38.009Z,88.60
2024-03-12T05:02:09.146Z,91.90
2024-03-12T05:05:47.234Z,84.00
2024-03-12T05:09:41.253Z,94.60
2024-03-12T05:13:05.364Z,90.20
2024-03-12T05:16:49.246Z,84.30
2024-03-12T05:19:51.700Z,97.20
2024-03-12T05:23:26.436Z,88.30
2024-03-12T05:27:31.355Z,96.70
2024-03-12T05:30:21.434Z,85.30
2024-03-12T05:33:52.579Z,88.90
2024-03-12T05:41:31.056Z,86.60
2024-03-12T05:45:20.813Z,101.00
2024-03-12T05:48:14.629Z,93.50
2024-03-12T05:51:05.445Z,91.70
2024-03-12T05:54:21.963Z,94.40
2024-03-12T05:58:16.632Z,86.90
2024-03-12T06:01:53.312Z,90.90
2024-03-12T06:05:19.533Z,86.80
2024-03-12T06:08:38.730Z,89.10
2024-03-12T06:11:23.925Z,91.80
2024-03-12T06:14:28.525Z,91.20
2024-03-12T06:17:30.300Z,85.50
2024-03-12T06:20:41.501Z,93.10
2024-03-12T06:23:30.591Z,81.90
2024-03-12T06:26:59.611Z,89.70
2024-03-12T06:30:24.678Z,87.40
2024-03-12T06:33:18.743Z,90.90
2024-03-12T06:36:50.423Z,82.60
2024-03-12T06:39:46.012Z,80.40
2024-03-12T06:42:43.806Z,81.10
2024-03-12T06:45:41.777Z,81.20
2024-03-12T06:49:13.635Z,80.20
2024-03-12T06:53:00.236Z,72.50
2024-03-12T06:56:35.440Z,82.00
2024-03-12T06:59:59.012Z,73.70
2024-03-12T07:03:21.530Z,70.80
2024-03-12T07:06:31.025Z,71.80
2024-03-12T07:10:35.137Z,64.70
2024-03-12T07:17:38.390Z,62.20
2024-03-12T07:21:20.336Z,71.20
2024-03-12T07:25:04.866Z,66.80
2024-03-12T07:28:14.025Z,68.40
2024-03-12T07:31:48.294Z,70.40
2024-03-12T07:35:36.273Z,67.20
2024-03-12T07:39:07.325Z,65.70
2024-03-12T07:42:44.018Z,63.00
2024-03-12T07:46:18.816Z,65.80
2024-03-12T07:49:54.515Z,70.60
2024-03-12T07:53:22.914Z,67.40
2024-03-12T07:56:42.233Z,64.90
2024-03-12T08:00:38.517Z,59.80
2024-03-12T08:04:33.467Z,55.70
2024-03-12T08:07:47.128Z,64.30
2024-03-12T08:10:34.932Z,63.50
2024-03-12T08:14:18.027Z,66.00
2024-03-12T08:17:30.394Z,63.70
2024-03-12T08:20:25.375Z,54.20
2024-03-12T08:23:17.174Z,49.70
2024-03-12T08:26:33.574Z,57.70
2024-03-12T08:29:50.513Z,63.90
2024-03-12T08:33:00.196Z,57.00
2024-03-12T08:36:00.600Z,66.20
2024-03-12T08:39:33.408Z,67.60
2024-03-12T08:43:11.509Z,70.50
2024-03-12T08:46:23.215Z,61.70
2024-03-12T08:49:52.090Z,64.90
2024-03-12T08:53:27.249Z,66.20
2024-03-12T08:56:35.550Z,68.70
2024-03-12T09:00:19.322Z,68.90
2024-03-12T09:03:46.637Z,68.10
2024-03-12T09:07:12.607Z,75.00
2024-03-12T09:10:35.652Z,75.60
2024-03-12T09:13:58.276Z,70.50
2024-03-12T09:17:29.913Z,69.50
2024-03-12T09:20:38.880Z,68.90
2024-03-12T09:23:24.885Z,70.90
2024-03-12T09:27:10.129Z,67.70
2024-03-12T09:30:57.946Z,72.80
2024-03-12T09:34:41.308Z,66.30
2024-03-12T09:38:10.910Z,67.40
2024-03-12T09:41:38.355Z,62.50
2024-03-12T09:45:26.204Z,63.80
2024-03-12T09:48:57.893Z,59.70
2024-03-12T09:52:26.735Z,65.10
2024-03-12T09:56:13.574Z,70.20
2024-03-12T10:00:02.918Z,66.90
2024-03-12T10:04:06.777Z,60.10
2024-03-12T10:08:10.748Z,66.50
2024-03-12T10:11:29.821Z,58.80
2024-03-12T10:14:53.922Z,67.20
2024-03-12T10:18:32.748Z,57.90
2024-03-12T10:21:42.338Z,65.50
2024-03-12T10:25:21.682Z,67.90
2024-03-12T10:28:58.664Z,68.60
2024-03-12T10:32:41.259Z,65.50
2024-03-12T10:36:01.739Z,70.70
2024-03-12T10:39:35.726Z,70.90
2024-03-12T10:43:32.001Z,70.30
2024-03-12T10:47:14.920Z,65.10
2024-03-12T10:50:44.315Z,68.00
2024-03-12T10:54:20.778Z,64.80
2024-03-12T10:57:39.194Z,65.40
2024-03-12T11:00:57.767Z,60.10
2024-03-12T11:04:33.016Z,62.70
2024-03-12T11:08:17.799Z,61.90
2024-03-12T11:11:49.871Z,57.90
2024-03-12T11:15:10.788Z,60.90
2024-03-12T11:18:48.654Z,62.00
2024-03-12T11:22:28.836Z,60.90
2024-03-12T11:25:41.083Z,56.80
2024-03-12T11:29:16.818Z,56.00
2024-03-12T11:33:03.132Z,59.20
2024-03-12T11:36:00.204Z,64.80
2024-03-12T11:39:34.697Z,55.90
2024-03-12T11:43:00.983Z,57.30
2024-03-12T11:45:59.121Z,59.30
2024-03-12T11:49:30.247Z,64.20
2024-03-12T11:52:33.611Z,58.50
2024-03-12T11:56:23.361Z,61.60
2024-03-12T11:59:36.937Z,53.70
2024-03-12T12:03:18.657Z,53.40
2024-03-12T12:06:25.191Z,57.90
2024-03-12T12:09:48.921Z,59.90
2024-03-12T12:12:55.178Z,54.90
2024-03-12T12:16:21.761Z,51.80
2024-03-12T12:19:43.053Z,53.30
2024-03-12T12:22:49.733Z,52.20
2024-03-12T12:25:46.805Z,55.70
2024-03-12T12:29:03.827Z,52.00
2024-03-12T12:32:01.727Z,52.30
2024-03-12T12:35:11.460Z,54.40
2024-03-12T12:38:20.481Z,52.00
2024-03-12T12:41:07.733Z,51.50
2024-03-12T12:43:56.633Z,51.40
2024-03-12T12:47:08.935Z,49.10
2024-03-12T12:50:13.418Z,45.30
2024-03-12T12:53:23.583Z,42.50
2024-03-12T12:57:05.834Z,48.40
2024-03-12T13:00:11.415Z,43.30
2024-03-12T13:03:23.439Z,47.90
2024-03-12T13:06:48.405Z,46.70
2024-03-12T13:10:33.149Z,45.90
2024-03-12T13:13:29.025Z,43.80
2024-03-12T13:16:53.340Z,47.30
2024-03-12T13:20:09.142Z,44.70
2024-03-12T13:23:08.446Z,43.30
2024-03-12T13:26:05.296Z,43.30
2024-03-12T13:29:30.958Z,44.90
2024-03-12T13:33:06.856Z,45.60
2024-03-12T13:36:11.475Z,44.60
2024-03-12T13:39:19.844Z,46.20
2024-03-12T13:42:06.426Z,47.60
2024-03-12T13:45:20.743Z,58.10
2024-03-12T13:48:48.278Z,45.80
2024-03-12T13:51:54.876Z,43.50
2024-03-12T13:55:08.457Z,49.20
2024-03-12T13:58:22.462Z,48.10
2024-03-12T14:01:19.824Z,42.90
2024-03-12T14:04:48.693Z,45.20
2024-03-12T14:07:47.300Z,47.90
2024-03-12T14:10:34.023Z,44.70
2024-03-12T14:14:02.531Z,54.10
2024-03-12T14:17:02.277Z,49.60
2024-03-12T14:20:34.984Z,54.20
2024-03-12T14:23:32.475Z,52.30
2024-03-12T14:26:48.128Z,47.70
2024-03-12T14:29:37.246Z,46.80
2024-03-12T14:32:33.322Z,45.20
2024-03-12T14:35:30.974Z,49.10
2024-03-12T14:38:54.484Z,46.60
2024-03-12T14:42:08.063Z,47.20
2024-03-12T14:45:08.713Z,45.90
2024-03-12T14:48:03.714Z,46.20
2024-03-12T14:51:17.464Z,49.50
2024-03-12T14:54:16.278Z,52.40
2024-03-12T14:57:58.934Z,48.80
2024-03-12T15:01:18.797Z,52.20
2024-03-12T15:04:54.288Z,48.30
2024-03-12T15:08:30.977Z,48.50
2024-03-12T15:11:34.375Z,50.90
2024-03-12T15:15:03.332Z,48.30
2024-03-12T15:17:58.165Z,53.10
2024-03-12T15:21:27.184Z,68.80
2024-03-12T15:24:55.061Z,66.80
2024-03-12T15:28:27.697Z,62.10
2024-03-12T15:31:51.452Z,61.90
2024-03-12T15:35:35.221Z,67.00
2024-03-12T15:39:08.018Z,70.10
2024-03-12T15:42:13.596Z,64.40
2024-03-12T15:45:17.866Z,71.30
2024-03-12T15:49:00.532Z,66.60
2024-03-12T15:52:45.299Z,68.40
2024-03-12T15:56:34.598Z,68.50
2024-03-12T15:59:56.054Z,71.50
2024-03-12T16:03:43.159Z,76.50
2024-03-12T16:06:42.609Z,71.10
2024-03-12T16:09:59.230Z,72.60
2024-03-12T16:12:54.873Z,71.70
2024-03-12T16:16:58.753Z,75.30
2024-03-12T16:23:28.257Z,74.50
2024-03-12T16:26:26.653Z,72.40
2024-03-12T16:29:25.034Z,66.20
2024-03-12T16:32:09.360Z,66.10
2024-03-12T16:35:19.697Z,76.50
2024-03-12T16:38:12.960Z,73.30
2024-03-12T16:41:24.040Z,73.60
2024-03-12T16:44:47.533Z,73.80
2024-03-12T16:47:53.871Z,75.80
2024-03-12T16:51:16.324Z,74.10
2024-03-12T16:54:49.237Z,73.20
2024-03-12T16:57:40.598Z,75.50
2024-03-12T17:00:42.804Z,79.30
2024-03-12T17:03:47.734Z,89.10
2024-03-12T17:10:37.252Z,95.70
2024-03-12T17:13:25.696Z,101.60
2024-03-12T17:16:30.806Z,96.80
2024-03-12T17:19:18.034Z,94.40
2024-03-12T17:22:43.526Z,91.10
2024-03-12T17:25:39.585Z,85.20
2024-03-12T17:28:40.453Z,81.90
2024-03-12T17:31:49.878Z,76.00
2024-03-12T17:35:10.473Z,82.30
2024-03-12T17:38:41.491Z,83.20
2024-03-12T17:41:55.153Z,80.90
2024-03-12T17:44:59.185Z,81.30
2024-03-12T17:48:31.686Z,80.50
2024-03-12T17:51:42.236Z,75.20
2024-03-12T17:55:09.421Z,74.50
2024-03-12T17:58:30.448Z,73.70
2024-03-12T18:01:36.781Z,75.00
2024-03-12T18:05:30.727Z,77.30
2024-03-12T18:08:46.230Z,79.60
2024-03-12T18:11:43.318Z,77.90
2024-03-12T18:14:40.305Z,77.30
2024-03-12T18:21:19.198Z,78.90
2024-03-12T18:24:25.345Z,79.80
2024-03-12T18:28:07.855Z,82.40
2024-03-12T18:31:03.255Z,75.70
2024-03-12T18:34:18.707Z,81.10
2024-03-12T18:37:43.418Z,86.90
2024-03-12T18:41:30.817Z,77.00
2024-03-12T18:45:08.292Z,85.20
2024-03-12T18:47:57.596Z,83.10
2024-03-12T18:51:15.673Z,86.50
2024-03-12T18:54:24.705Z,84.80
2024-03-12T18:58:15.313Z,85.50
2024-03-12T19:01:59.619Z,85.10
2024-03-12T19:05:49.756Z,82.10
2024-03-12T19:09:22.493Z,79.60
2024-03-12T19:12:55.439Z,74.00
2024-03-12T19:16:23.783Z,78.80
2024-03-12T19:20:00.389Z,81.60
2024-03-12T19:23:18.372Z,79.50
2024-03-12T19:26:28.606Z,77.80
2024-03-12T19:29:55.329Z,80.70
2024-03-12T19:33:42.283Z,80.40
2024-03-12T19:37:47.032Z,85.40
2024-03-12T19:41:13.607Z,81.20
2024-03-12T19:44:16.131Z,77.80
2024-03-12T19:47:40.050Z,77.00
2024-03-12T19:54:32.405Z,75.70
2024-03-12T19:58:13.237Z,79.50
2024-03-12T20:01:43.254Z,80.30
2024-03-12T20:04:52.808Z,75.10
2024-03-12T20:08:10.695Z,79.70
2024-03-12T20:11:18.193Z,78.10
2024-03-12T20:15:22.184Z,75.80
2024-03-12T20:18:46.239Z,81.30
2024-03-12T20:22:05.341Z,78.00
2024-03-12T20:25:35.928Z,89.00
2024-03-12T20:28:53.691Z,81.40
2024-03-12T20:32:36.574Z,80.00
2024-03-12T20:36:41.759Z,86.90
2024-03-12T20:40:25.526Z,86.70
2024-03-12T20:44:00.917Z,79.40
2024-03-12T20:47:24.713Z,83.90
2024-03-12T20:50:58.842Z,84.90
2024-03-12T20:54:24.779Z,85.40
2024-03-12T20:57:49.151Z,87.90
2024-03-12T21:00:58.388Z,82.90
2024-03-12T21:03:55.736Z,92.30
2024-03-12T21:07:42.381Z,89.20
2024-03-12T21:11:18.977Z,86.70
2024-03-12T21:14:40.175Z,92.00
2024-03-12T21:18:07.156Z,86.70
2024-03-12T21:21:51.261Z,93.20
2024-03-12T21:25:45.223Z,86.40
2024-03-12T21:29:38.949Z,86.60
2024-03-12T21:32:59.555Z,88.70
2024-03-12T21:36:54.626Z,91.40
2024-03-12T21:40:58.734Z,87.70
2024-03-12T21:44:56.236Z,91.40
2024-03-12T21:48:38.809Z,91.10
2024-03-12T21:52:25.090Z,86.90
2024-03-12T21:56:12.171Z,90.80
2024-03-12T21:59:55.953Z,90.30
2024-03-12T22:03:49.875Z,95.20
2024-03-12T22:07:31.854Z,91.30
2024-03-12T22:10:58.642Z,91.90
2024-03-12T22:13:55.915Z,88.40
2024-03-12T22:17:42.726Z,93.40
2024-03-12T22:24:53.403Z,91.80
2024-03-12T22:28:49.108Z,85.30
2024-03-12T22:32:43.168Z,84.90
2024-03-12T22:36:26.038Z,88.90
2024-03-12T22:39:50.081Z,84.90
2024-03-12T22:43:28.895Z,82.80
2024-03-12T22:47:05.093Z,83.50
2024-03-12T22:50:49.163Z,84.10
2024-03-12T22:54:30.375Z,77.00
2024-03-12T22:58:04.251Z,85.20
2024-03-12T23:04:47.054Z,84.20
2024-03-12T23:08:06.356Z,86.10
2024-03-12T23:12:03.564Z,82.50
2024-03-12T23:15:28.209Z,86.60
2024-03-12T23:19:03.965Z,72.60
2024-03-12T23:22:57.911Z,79.50
2024-03-12T23:26:54.172Z,78.80
2024-03-12T23:30:49.224Z,86.90
2024-03-12T23:34:49.433Z,79.30
2024-03-12T23:38:46.520Z,73.30
2024-03-12T23:42:35.621Z,84.90
2024-03-12T23:46:33.725Z,78.80
2024-03-12T23:50:12.169Z,80.80
2024-03-12T23:53:18.912Z,88.70
2024-03-12T23:57:04.991Z,76.70
